Ekin-s — TCMW3 — position and weather

sailwx.info

Track history (hours):
 
Tides and Currents Weather Stations Pressure Air Temp Water Temp Dewpoint Dewpoint Depression Visibility Wind Speed Wind Dir Waves Ship Positions

Ekin-s

Last reported at 2014-Oct-02 00:18 UTC. Time now 2014-Oct-02 04:28 UTC.
Position N 36°11' W 007°46'.

Length 109 m; draft 5.7 m.

Type: Ship. MMSI: 271042836.

Date/timePositionNaut miles runAvg speedWind from/ knotsBaromVisibWave heightAir tempDewpointWater temp
2014-Oct-02 00:18N 36°11' W 007°46'11410.6
2014-Oct-01 13:33N 37°14' W 009°46'1312.8
2014-Oct-01 12:33N 37°26' W 009°50'1412.7
2014-Oct-01 11:29N 37°39' W 009°53'1212.7
2014-Oct-01 10:33N 37°51' W 009°57'1312.6
2014-Oct-01 09:33N 38°03' W 010°00'1212.4
2014-Oct-01 08:33N 38°15' W 010°04'1212.1
2014-Oct-01 07:33N 38°27' W 010°07'1212.6
2014-Oct-01 06:33N 38°39' W 010°11'1413.0
2014-Oct-01 05:31N 38°53' W 010°11'1212.7
2014-Oct-01 04:33N 39°05' W 010°07'  
2014-Sep-27 05:24N 38°37' W 009°50'1113.1
2014-Sep-27 04:31N 38°26' W 009°47'1313.1
2014-Sep-27 03:33N 38°14' W 009°43'1313.2
2014-Sep-27 02:33N 38°01' W 009°40'1313.1
2014-Sep-27 01:33N 37°48' W 009°36'1313.2
2014-Sep-27 00:33N 37°35' W 009°32'1312.9
2014-Sep-26 23:32N 37°22' W 009°28'1312.5
2014-Sep-26 22:32N 37°10' W 009°25'1212.4
2014-Sep-26 21:33N 36°58' W 009°21'2411.6
2014-Sep-26 19:30N 36°42' W 008°59'1212.8
2014-Sep-26 18:34N 36°42' W 008°44'1312.6
2014-Sep-26 17:34N 36°42' W 008°28'1312.9
2014-Sep-26 16:34N 36°43' W 008°12'1312.9
2014-Sep-26 15:31N 36°42' W 007°55'  
Track history (hours):
 
Tides and Currents Weather Stations Pressure Air Temp Water Temp Dewpoint Dewpoint Depression Visibility Wind Speed Wind Dir Waves Ship Positions

Ekin-s

Last reported at 2014-Oct-02 00:18 UTC. Time now 2014-Oct-02 04:28 UTC.
Position N 36°11' W 007°46'.

Length 109 m; draft 5.7 m.

Type: Ship. MMSI: 271042836.

Date/timePositionNaut miles runAvg speedWind from/ knotsBaromVisibWave heightAir tempDewpointWater temp
2014-Oct-02 00:18N 36°11' W 007°46'11410.6
2014-Oct-01 13:33N 37°14' W 009°46'1312.8
2014-Oct-01 12:33N 37°26' W 009°50'1412.7
2014-Oct-01 11:29N 37°39' W 009°53'1212.7
2014-Oct-01 10:33N 37°51' W 009°57'1312.6
2014-Oct-01 09:33N 38°03' W 010°00'1212.4
2014-Oct-01 08:33N 38°15' W 010°04'1212.1
2014-Oct-01 07:33N 38°27' W 010°07'1212.6
2014-Oct-01 06:33N 38°39' W 010°11'1413.0
2014-Oct-01 05:31N 38°53' W 010°11'1212.7
2014-Oct-01 04:33N 39°05' W 010°07'  
2014-Sep-27 05:24N 38°37' W 009°50'1113.1
2014-Sep-27 04:31N 38°26' W 009°47'1313.1
2014-Sep-27 03:33N 38°14' W 009°43'1313.2
2014-Sep-27 02:33N 38°01' W 009°40'1313.1
2014-Sep-27 01:33N 37°48' W 009°36'1313.2
2014-Sep-27 00:33N 37°35' W 009°32'1312.9
2014-Sep-26 23:32N 37°22' W 009°28'1312.5
2014-Sep-26 22:32N 37°10' W 009°25'1212.4
2014-Sep-26 21:33N 36°58' W 009°21'2411.6
2014-Sep-26 19:30N 36°42' W 008°59'1212.8
2014-Sep-26 18:34N 36°42' W 008°44'1312.6
2014-Sep-26 17:34N 36°42' W 008°28'1312.9
2014-Sep-26 16:34N 36°43' W 008°12'1312.9
2014-Sep-26 15:31N 36°42' W 007°55'  

Dump ship's entire track history